Map

Track Data

SID SEASON NUMBER BASIN SUBBASIN NAME ISO_TIME NATURE LAT LON WMO_WIND WMO_PRES WMO_AGENCY TRACK_TYPE DIST2LAND LANDFALL IFLAG USA_AGENCY USA_ATCF_ID USA_LAT USA_LON USA_RECORD USA_STATUS USA_WIND USA_PRES USA_SSHS USA_R34_NE USA_R34_SE USA_R34_SW USA_R34_NW USA_R50_NE USA_R50_SE USA_R50_SW USA_R50_NW USA_R64_NE USA_R64_SE USA_R64_SW USA_R64_NW USA_POCI USA_ROCI USA_RMW USA_EYE TOKYO_LAT TOKYO_LON TOKYO_GRADE TOKYO_WIND TOKYO_PRES TOKYO_R50_DIR TOKYO_R50_LONG TOKYO_R50_SHORT TOKYO_R30_DIR TOKYO_R30_LONG TOKYO_R30_SHORT TOKYO_LAND CMA_LAT CMA_LON CMA_CAT CMA_WIND CMA_PRES HKO_LAT HKO_LON HKO_CAT HKO_WIND HKO_PRES NEWDELHI_LAT NEWDELHI_LON NEWDELHI_GRADE NEWDELHI_WIND NEWDELHI_PRES NEWDELHI_CI NEWDELHI_DP NEWDELHI_POCI REUNION_LAT REUNION_LON REUNION_TYPE REUNION_WIND REUNION_PRES REUNION_TNUM REUNION_CI REUNION_RMW REUNION_R34_NE REUNION_R34_SE REUNION_R34_SW REUNION_R34_NW REUNION_R50_NE REUNION_R50_SE REUNION_R50_SW REUNION_R50_NW REUNION_R64_NE REUNION_R64_SE REUNION_R64_SW REUNION_R64_NW BOM_LAT BOM_LON BOM_TYPE BOM_WIND BOM_PRES BOM_TNUM BOM_CI BOM_RMW BOM_R34_NE BOM_R34_SE BOM_R34_SW BOM_R34_NW BOM_R50_NE BOM_R50_SE BOM_R50_SW BOM_R50_NW BOM_R64_NE BOM_R64_SE BOM_R64_SW BOM_R64_NW BOM_ROCI BOM_POCI BOM_EYE BOM_POS_METHOD BOM_PRES_METHOD NADI_LAT NADI_LON NADI_CAT NADI_WIND NADI_PRES WELLINGTON_LAT WELLINGTON_LON WELLINGTON_WIND WELLINGTON_PRES DS824_LAT DS824_LON DS824_STAGE DS824_WIND DS824_PRES TD9636_LAT TD9636_LON TD9636_STAGE TD9636_WIND TD9636_PRES TD9635_LAT TD9635_LON TD9635_WIND TD9635_PRES TD9635_ROCI NEUMANN_LAT NEUMANN_LON NEUMANN_CLASS NEUMANN_WIND NEUMANN_PRES MLC_LAT MLC_LON MLC_CLASS MLC_WIND MLC_PRES USA_GUST BOM_GUST BOM_GUST_PER REUNION_GUST REUNION_GUST_PER USA_SEAHGT USA_SEARAD_NE USA_SEARAD_SE USA_SEARAD_SW USA_SEARAD_NW STORM_SPEED STORM_DIR
1978176N20117 1978 41 WP MM NOT_NAMED 1978-06-24 18:00:00 TS 19.8000 116.500 main 332 305 __O___________ -1 19.8000 116.500 0 17 1000 25 263
1978176N20117 1978 41 WP MM NOT_NAMED 1978-06-24 21:00:00 TS 19.6558 115.156 main 305 275 __P___________ -1 19.6558 115.156 0 17 999 22 267
1978176N20117 1978 41 WP MM NOT_NAMED 1978-06-25 00:00:00 TS 19.7000 114.200 main 275 232 __O___________ -1 19.7000 114.200 0 17 998 13 288
1978176N20117 1978 41 WP MM NOT_NAMED 1978-06-25 03:00:00 TS 20.0537 113.865 main 221 177 __P___________ -1 20.0537 113.865 0 18 998 9 335
1978176N20117 1978 41 WP MM NOT_NAMED 1978-06-25 06:00:00 TS 20.5000 113.800 main 177 137 __O___________ -1 20.5000 113.800 0 19 998 8 339
1978176N20117 1978 41 WP MM NOT_NAMED 1978-06-25 09:00:00 TS 20.7649 113.580 main 137 105 __P___________ -1 20.7649 113.580 0 21 998 7 317
1978176N20117 1978 41 WP MM NOT_NAMED 1978-06-25 12:00:00 TS 21.0000 113.300 main 105 67 __O___________ -1 21.0000 113.300 1 23 998 8 317
1978176N20117 1978 41 WP MM NOT_NAMED 1978-06-25 15:00:00 TS 21.3595 112.976 main 55 22 __P___________ -1 21.3595 112.976 1 23 997 10 309
1978176N20117 1978 41 WP MM NOT_NAMED 1978-06-25 18:00:00 TS 21.6000 112.500 main 22 11 __O___________ -1 21.6000 112.500 1 23 996 11 277
1978176N20117 1978 41 WP MM NOT_NAMED 1978-06-25 21:00:00 TS 21.4872 111.839 main 11 10 __P___________ -1 21.4872 111.839 1 21 995 14 258
1978176N20117 1978 41 WP MM NOT_NAMED 1978-06-26 00:00:00 TS 21.3000 111.000 main 22 0 __O___________ -1 21.3000 111.000 0 19 995 18 265
1978176N20117 1978 41 WP MM NOT_NAMED 1978-06-26 03:00:00 TS 21.3436 109.963 main 0 0 __P___________ -1 21.3436 109.963 0 18 995 19 273
1978176N20117 1978 41 WP MM NOT_NAMED 1978-06-26 06:00:00 TS 21.4000 109.000 main 20 20 __O___________ -1 21.4000 109.000 0 17 995 15 269
1978176N20117 1978 41 WP MM NOT_NAMED 1978-06-26 09:00:00 TS 21.3216 108.402 main 30 22 __P___________ -1 21.3216 108.402 0 17 995 10 258
1978176N20117 1978 41 WP MM NOT_NAMED 1978-06-26 12:00:00 TS 21.2000 108.000 main 24 22 __O___________ -1 21.2000 108.000 0 17 995 7 253
1978176N20117 1978 41 WP MM NOT_NAMED 1978-06-26 15:00:00 TS 21.1145 107.658 main 24 0 __P___________ -1 21.1145 107.658 0 17 994 7 253
1978176N20117 1978 41 WP MM NOT_NAMED 1978-06-26 18:00:00 TS 21.0000 107.300 main 0 0 __O___________ -1 21.0000 107.300 0 17 994 9 245
1978176N20117 1978 41 WP MM NOT_NAMED 1978-06-26 21:00:00 TS 20.7398 106.801 main 0 0 __P___________ -1 20.7398 106.801 0 17 994 11 249
1978176N20117 1978 41 WP MM NOT_NAMED 1978-06-27 00:00:00 TS 20.6000 106.200 main 0 0 __O___________ -1 20.6000 106.200 0 17 994 12 273
1978176N20117 1978 41 WP MM NOT_NAMED 1978-06-27 03:00:00 TS 20.7946 105.552 main 0 0 __P___________ -1 20.7946 105.552 0 17 994 14 295
1978176N20117 1978 41 WP MM NOT_NAMED 1978-06-27 06:00:00 TS 21.2000 104.800 main 0 0 __O___________ -1 21.2000 104.800 0 17 994 18 300
1978176N20117 1978 41 WP MM NOT_NAMED 1978-06-27 09:00:00 TS 21.6853 103.908 main 0 0 __P___________ -1 21.6853 103.908 0 17 994 20 301
1978176N20117 1978 41 WP MM NOT_NAMED 1978-06-27 12:00:00 TS 22.2000 103.000 main 0 0 __O___________ -1 22.2000 103.000 0 17 995 18 301
1978176N20117 1978 41 WP MM NOT_NAMED 1978-06-27 15:00:00 TS 22.6301 102.210 main 0 0 __P___________ -1 22.6301 102.210 0 17 996 16 300
1978176N20117 1978 41 WP MM NOT_NAMED 1978-06-27 18:00:00 TS 23.0000 101.500 main 0 __O___________ -1 23.0000 101.500 0 17 998 15 300

Digital Typhoon Data and Search

About IBTrACS Database

This database is a web-friendly format of International Best Track Archive for Climate Stewardship (IBTrACS), a global best track data archive curated by NOAA dating back to 1842.

Updated: 2021-11-26